Time;durP1;ratioP1;P1;durP2;ratioP2;P2;SDS_P1;SDS_P2;PMS_P1;PMS_P2;Temp;Humidity;BMP_temperature;BMP_pressure;BME280_temperature;BME280_humidity;BME280_pressure;Samples;Min_cycle;Max_cycle;Signal;HPM_P1;HPM_P2
2022/11/16 00:00:46;;;;;;;;;;;;;;;7.82;100.00;99182.81;5039005;28;19975;-92
2022/11/16 00:03:11;;;;;;;;;;;;;;;7.79;100.00;99180.94;5048383;28;19921;-92
2022/11/16 00:05:37;;;;;;;;;;;;;;;7.79;100.00;99178.97;5059843;28;19939;-92
2022/11/16 00:08:02;;;;;;;;;;;;;;;7.84;100.00;99161.09;5034668;28;19964;-91
2022/11/16 00:10:28;;;;;;;;;;;;;;;7.81;100.00;99170.22;5032595;28;19921;-91
2022/11/16 00:12:53;;;;;;;;;;;;;;;7.82;100.00;99166.25;5031938;28;19917;-91
2022/11/16 00:15:18;;;;;;;;;;;;;;;7.81;100.00;99170.22;5031497;28;19928;-92
2022/11/16 00:17:44;;;;;;;;;;;;;;;7.80;100.00;99174.22;5038863;28;19920;-77
2022/11/16 00:20:09;;;;;;;;;;;;;;;7.79;100.00;99173.44;5051555;28;19925;-77
2022/11/16 00:22:35;;;;;;;;;;;;;;;7.76;100.00;99157.78;5051094;28;20486;-77
2022/11/16 00:25:00;;;;;;;;;;;;;;;7.73;100.00;99152.31;5036523;28;19921;-77
2022/11/16 00:27:25;;;;;;;;;;;;;;;7.74;100.00;99164.94;5036187;28;19927;-77
2022/11/16 00:29:51;;;;;;;;;;;;;;;7.75;100.00;99155.44;5041389;28;19920;-77
2022/11/16 00:32:16;;;;;;;;;;;;;;;7.79;100.00;99150.59;5040704;28;19983;-77
2022/11/16 00:34:41;;;;;;;;;;;;;;;7.78;100.00;99151.78;5031183;28;20390;-77
2022/11/16 00:37:07;;;;;;;;;;;;;;;7.76;100.00;99132.16;5035251;28;20031;-92
2022/11/16 00:39:33;;;;;;;;;;;;;;;7.70;100.00;99137.44;5044524;28;19924;-91
2022/11/16 00:41:58;;;;;;;;;;;;;;;7.71;100.00;99143.72;5038577;28;19943;-91
2022/11/16 00:44:23;;;;;;;;;;;;;;;7.68;100.00;99150.13;5045361;28;20390;-91
2022/11/16 00:46:49;;;;;;;;;;;;;;;7.65;100.00;99146.25;5043984;28;19921;-91
2022/11/16 00:49:15;;;;;;;;;;;;;;;7.68;100.00;99128.06;5042557;28;19931;-92
2022/11/16 00:51:40;;;;;;;;;;;;;;;7.69;100.00;99130.34;5018517;28;19921;-93
2022/11/16 00:54:07;;;;;;;;;;;;;;;7.67;100.00;99137.53;5006563;28;19925;-93
2022/11/16 00:56:34;;;;;;;;;;;;;;;7.68;100.00;99133.56;5018568;28;19982;-77
2022/11/16 00:59:00;;;;;;;;;;;;;;;7.68;100.00;99133.56;5024692;28;19929;-77
2022/11/16 01:01:25;;;;;;;;;;;;;;;7.68;100.00;99117.00;5030269;28;21494;-77
2022/11/16 01:03:51;;;;;;;;;;;;;;;7.66;100.00;99127.69;5041651;28;19921;-77
2022/11/16 01:06:19;;;;;;;;;;;;;;;7.68;100.00;99130.81;5046196;28;19932;-77
2022/11/16 01:08:44;;;;;;;;;;;;;;;7.66;100.00;99113.91;5036695;28;19927;-78
2022/11/16 01:13:57;;;;;;;;;;;;;;;7.63;100.00;99125.81;5043334;28;19976;-77
2022/11/16 01:16:22;;;;;;;;;;;;;;;7.63;100.00;99126.59;5019761;28;19956;-91
2022/11/16 01:18:48;;;;;;;;;;;;;;;7.59;100.00;99122.41;5045038;28;19928;-92
2022/11/16 01:21:14;;;;;;;;;;;;;;;7.57;100.00;99127.56;5040526;28;19921;-93
2022/11/16 01:23:39;;;;;;;;;;;;;;;7.55;100.00;99119.75;5038181;28;19924;-92
2022/11/16 01:26:05;;;;;;;;;;;;;;;7.55;100.00;99125.25;5024528;28;20011;-92
2022/11/16 01:28:33;;;;;;;;;;;;;;;7.56;100.00;99117.75;5019498;28;19948;-93
2022/11/16 01:30:59;;;;;;;;;;;;;;;7.56;100.00;99120.53;5028871;28;20027;-92
2022/11/16 01:33:26;;;;;;;;;;;;;;;7.55;100.00;99118.97;5031988;28;20369;-78
2022/11/16 01:35:51;;;;;;;;;;;;;;;7.55;100.00;99116.22;5009499;28;20125;-77
2022/11/16 01:38:17;;;;;;;;;;;;;;;7.58;100.00;99118.09;5025045;28;19920;-77
2022/11/16 01:40:43;;;;;;;;;;;;;;;7.54;100.00;99111.91;5028151;28;19964;-77
2022/11/16 01:43:14;;;;;;;;;;;;;;;7.55;100.00;99099.66;5015951;28;20286;-77
2022/11/16 01:45:41;;;;;;;;;;;;;;;7.59;100.00;99098.34;5019473;28;19924;-78
2022/11/16 01:48:09;;;;;;;;;;;;;;;7.62;100.00;99091.16;5019359;28;19921;-77
2022/11/16 01:50:35;;;;;;;;;;;;;;;7.65;100.00;99085.53;5016702;28;19921;-77
2022/11/16 01:53:02;;;;;;;;;;;;;;;7.59;100.00;99083.75;5032592;28;19924;-92
2022/11/16 01:55:33;;;;;;;;;;;;;;;7.51;100.00;99074.91;5026993;28;19921;-93
2022/11/16 01:58:27;;;;;;;;;;;;;;;7.49;100.00;99072.59;5021985;28;20367;-92
2022/11/16 02:01:03;;;;;;;;;;;;;;;7.48;100.00;99071.03;5017546;28;19925;-92
2022/11/16 02:03:38;;;;;;;;;;;;;;;7.50;100.00;99063.09;5020393;28;19921;-92
2022/11/16 02:06:03;;;;;;;;;;;;;;;7.52;100.00;99064.66;5016862;28;19921;-92
2022/11/16 02:12:12;;;;;;;;;;;;;;;7.53;100.00;99044.09;5036605;28;20299;-77
2022/11/16 02:14:56;;;;;;;;;;;;;;;7.47;100.00;99052.19;5035895;28;19921;-77
2022/11/16 02:17:35;;;;;;;;;;;;;;;7.43;100.00;99043.22;5014046;28;20318;-77
2022/11/16 02:20:05;;;;;;;;;;;;;;;7.42;100.00;99042.47;4999914;28;20428;-77
2022/11/16 02:22:40;;;;;;;;;;;;;;;7.34;100.00;99043.88;5015974;28;19921;-77
2022/11/16 02:25:09;;;;;;;;;;;;;;;7.28;100.00;99040.09;5022511;28;20408;-77
2022/11/16 02:27:37;;;;;;;;;;;;;;;7.18;100.00;99046.72;5021127;28;19969;-77
2022/11/16 02:30:03;;;;;;;;;;;;;;;7.21;100.00;99039.53;5015950;28;19921;-77
2022/11/16 02:32:30;;;;;;;;;;;;;;;7.16;100.00;99038.09;5048132;28;19921;-92
2022/11/16 02:35:02;;;;;;;;;;;;;;;7.15;100.00;99025.53;5004130;28;19929;-93
2022/11/16 02:37:28;;;;;;;;;;;;;;;7.11;100.00;99027.63;5033251;28;19921;-92
2022/11/16 02:39:57;;;;;;;;;;;;;;;7.09;100.00;99027.28;5016109;28;19972;-93
2022/11/16 02:42:25;;;;;;;;;;;;;;;7.08;100.00;99019.47;5022441;28;20280;-92
2022/11/16 02:44:50;;;;;;;;;;;;;;;7.06;100.00;99016.34;5028441;28;19928;-92
2022/11/16 02:47:17;;;;;;;;;;;;;;;7.07;100.00;99023.41;5040985;28;20290;-93
2022/11/16 02:49:44;;;;;;;;;;;;;;;7.08;100.00;99020.19;5021105;28;19925;-78
2022/11/16 02:52:09;;;;;;;;;;;;;;;7.03;100.00;99026.28;5000606;28;19921;-78
2022/11/16 02:54:34;;;;;;;;;;;;;;;7.04;100.00;99014.78;5016139;28;19925;-78
2022/11/16 02:57:03;;;;;;;;;;;;;;;7.06;100.00;99011.63;5034334;28;20394;-78
2022/11/16 02:59:32;;;;;;;;;;;;;;;7.04;100.00;99016.78;5016702;28;20379;-78
2022/11/16 03:02:00;;;;;;;;;;;;;;;7.05;100.00;99010.06;5030394;28;19924;-78
2022/11/16 03:04:33;;;;;;;;;;;;;;;7.01;100.00;99010.16;5018255;28;20389;-78
2022/11/16 03:06:58;;;;;;;;;;;;;;;7.05;100.00;99007.31;5029222;28;20000;-78
2022/11/16 03:09:25;;;;;;;;;;;;;;;7.06;100.00;98994.28;5036439;28;20443;-93
2022/11/16 03:12:00;;;;;;;;;;;;;;;7.00;100.00;99000.34;5032376;28;19925;-93
2022/11/16 03:14:33;;;;;;;;;;;;;;;7.00;100.00;98991.28;5020107;28;19928;-94
2022/11/16 03:16:59;;;;;;;;;;;;;;;6.99;100.00;98989.75;5025790;28;19928;-93
2022/11/16 03:19:46;;;;;;;;;;;;;;;7.02;100.00;98992.41;5039443;28;20014;-93
2022/11/16 03:22:35;;;;;;;;;;;;;;;7.03;100.00;98991.22;5022610;28;20013;-92
2022/11/16 03:25:00;;;;;;;;;;;;;;;7.05;100.00;98988.00;5044005;28;19925;-90
2022/11/16 03:27:47;;;;;;;;;;;;;;;7.08;100.00;98991.88;5020519;28;19918;-91
2022/11/16 03:30:17;;;;;;;;;;;;;;;7.04;100.00;98987.22;5011033;28;20350;-78
2022/11/16 03:32:45;;;;;;;;;;;;;;;7.07;100.00;98985.59;5024958;28;20461;-78
2022/11/16 03:35:15;;;;;;;;;;;;;;;7.10;100.00;98979.19;5021134;28;19925;-78
2022/11/16 03:37:41;;;;;;;;;;;;;;;7.07;100.00;98966.28;5022804;28;20330;-78
2022/11/16 03:40:09;;;;;;;;;;;;;;;7.06;100.00;98981.28;5008774;28;19929;-78
2022/11/16 03:42:34;;;;;;;;;;;;;;;7.05;100.00;98971.44;5015145;28;19928;-78
2022/11/16 03:45:00;;;;;;;;;;;;;;;7.00;100.00;98964.50;5032668;28;19928;-78
2022/11/16 03:47:25;;;;;;;;;;;;;;;7.01;100.00;98970.78;5035794;28;19939;-93
2022/11/16 03:49:51;;;;;;;;;;;;;;;6.96;100.00;98957.53;5033369;28;19928;-94
2022/11/16 03:52:18;;;;;;;;;;;;;;;6.99;100.00;98965.72;5017353;28;20008;-93
2022/11/16 03:54:45;;;;;;;;;;;;;;;7.00;100.00;98952.69;5015642;28;19975;-93
2022/11/16 03:57:17;;;;;;;;;;;;;;;6.98;100.00;98958.66;5017618;28;21358;-93
2022/11/16 03:59:44;;;;;;;;;;;;;;;6.98;100.00;98955.13;5040361;28;19921;-92
2022/11/16 04:02:10;;;;;;;;;;;;;;;6.97;100.00;98950.81;5014012;28;19925;-92
2022/11/16 04:29:15;;;;;;;;;;;;;;;6.88;100.00;98928.63;5021707;28;19967;-93
2022/11/16 04:39:54;;;;;;;;;;;;;;;6.83;100.00;98918.94;5032304;28;19928;-92
2022/11/16 04:42:21;;;;;;;;;;;;;;;6.79;100.00;98920.25;5025706;28;20008;-93
2022/11/16 04:47:41;;;;;;;;;;;;;;;6.75;100.00;98911.31;5024732;28;19928;-78
2022/11/16 04:50:07;;;;;;;;;;;;;;;6.67;100.00;98907.22;5007064;28;19933;-78
2022/11/16 04:52:32;;;;;;;;;;;;;;;6.64;100.00;98908.84;5021281;28;19921;-78
2022/11/16 04:54:58;;;;;;;;;;;;;;;6.67;100.00;98908.00;5011204;28;19921;-78
2022/11/16 04:57:23;;;;;;;;;;;;;;;6.64;100.00;98908.09;5016163;28;19921;-78
2022/11/16 04:59:49;;;;;;;;;;;;;;;6.57;100.00;98909.84;5023271;28;19964;-78
2022/11/16 05:02:15;;;;;;;;;;;;;;;6.57;100.00;98904.34;5010349;28;19947;-78
2022/11/16 05:04:49;;;;;;;;;;;;;;;6.58;100.00;98896.84;5020702;28;20590;-93
2022/11/16 05:07:15;;;;;;;;;;;;;;;6.54;100.00;98896.94;5029366;28;20386;-93
2022/11/16 05:09:43;;;;;;;;;;;;;;;6.54;100.00;98888.69;5019771;28;20402;-92
2022/11/16 05:12:13;;;;;;;;;;;;;;;6.55;100.00;98895.72;5023629;28;19924;-92
2022/11/16 05:14:40;;;;;;;;;;;;;;;6.59;100.00;98887.38;5028220;28;19944;-92
2022/11/16 05:17:06;;;;;;;;;;;;;;;6.60;100.00;98877.09;5022973;28;20622;-93
2022/11/16 05:22:16;;;;;;;;;;;;;;;6.61;100.00;98892.44;5035463;28;19948;-79
2022/11/16 05:24:41;;;;;;;;;;;;;;;6.48;100.00;98892.41;5024781;28;19929;-78
2022/11/16 05:27:08;;;;;;;;;;;;;;;6.42;100.00;98886.66;5023768;28;19929;-78
2022/11/16 05:29:34;;;;;;;;;;;;;;;6.46;100.00;98884.59;5018473;28;19924;-77
2022/11/16 05:32:00;;;;;;;;;;;;;;;6.48;100.00;98875.88;5001608;28;19932;-76
2022/11/16 05:34:26;;;;;;;;;;;;;;;6.49;100.00;98880.19;5020855;28;20346;-77
2022/11/16 05:36:51;;;;;;;;;;;;;;;6.47;100.00;98877.84;5018244;28;20351;-77
2022/11/16 05:39:16;;;;;;;;;;;;;;;6.47;100.00;98877.84;5029864;28;19929;-76
2022/11/16 05:41:42;;;;;;;;;;;;;;;6.48;100.00;98878.63;5018475;28;20020;-90
2022/11/16 05:44:07;;;;;;;;;;;;;;;6.53;100.00;98876.13;5020547;28;19928;-96
2022/11/16 05:46:33;;;;;;;;;;;;;;;6.52;100.00;98877.31;5014837;28;19989;-93
2022/11/16 05:49:00;;;;;;;;;;;;;;;6.50;100.00;98877.00;5024901;28;20326;-93
2022/11/16 05:51:26;;;;;;;;;;;;;;;6.49;100.00;98880.19;5017933;28;19925;-93
2022/11/16 05:53:52;;;;;;;;;;;;;;;6.44;100.00;98881.47;5021686;28;19928;-93
2022/11/16 05:56:21;;;;;;;;;;;;;;;6.43;100.00;98874.41;5019827;28;19929;-94
2022/11/16 05:58:46;;;;;;;;;;;;;;;6.43;100.00;98877.19;5007262;28;20000;-91
2022/11/16 06:01:11;;;;;;;;;;;;;;;6.46;100.00;98876.31;4991883;28;19921;-77
2022/11/16 06:03:37;;;;;;;;;;;;;;;6.40;100.00;98880.81;5005274;28;20220;-77
2022/11/16 06:06:03;;;;;;;;;;;;;;;6.35;100.00;98875.84;5010756;28;19922;-77
2022/11/16 06:08:29;;;;;;;;;;;;;;;6.35;100.00;98875.09;5006556;28;19988;-77
2022/11/16 06:11:04;;;;;;;;;;;;;;;6.34;100.00;98874.31;5011169;28;19935;-77
2022/11/16 06:13:30;;;;;;;;;;;;;;;6.36;100.00;98873.84;5014260;28;19925;-77
2022/11/16 06:15:58;;;;;;;;;;;;;;;6.32;100.00;98871.19;5015786;28;19928;-76
2022/11/16 06:18:23;;;;;;;;;;;;;;;6.34;100.00;98873.53;5012882;28;19921;-76
2022/11/16 06:20:49;;;;;;;;;;;;;;;6.28;100.00;98876.03;5013079;28;20456;-92
2022/11/16 06:23:16;;;;;;;;;;;;;;;6.33;100.00;98866.47;5044594;28;19921;-92
2022/11/16 06:25:41;;;;;;;;;;;;;;;6.37;100.00;98865.16;5016740;28;19983;-94
2022/11/16 06:28:07;;;;;;;;;;;;;;;6.30;100.00;98859.88;5017454;28;19976;-90
2022/11/16 06:30:33;;;;;;;;;;;;;;;6.36;100.00;98869.13;5025826;28;19956;-93
2022/11/16 06:32:59;;;;;;;;;;;;;;;6.38;100.00;98863.19;5012897;28;20478;-93
2022/11/16 06:35:25;;;;;;;;;;;;;;;6.32;100.00;98864.91;5009237;28;20028;-91
2022/11/16 06:37:51;;;;;;;;;;;;;;;6.35;100.00;98858.56;5007215;28;19921;-91
2022/11/16 06:40:17;;;;;;;;;;;;;;;6.35;100.00;98859.31;5008519;28;20448;-77
2022/11/16 06:42:44;;;;;;;;;;;;;;;6.38;100.00;98874.97;5008081;28;20400;-77
2022/11/16 06:45:11;;;;;;;;;;;;;;;6.35;100.00;98867.56;5024246;28;19925;-77
2022/11/16 06:47:40;;;;;;;;;;;;;;;6.37;100.00;98862.41;5008458;28;19975;-78
2022/11/16 06:50:06;;;;;;;;;;;;;;;6.42;100.00;98861.88;5009326;28;20016;-77
2022/11/16 06:52:32;;;;;;;;;;;;;;;6.46;100.00;98859.78;5027615;28;20358;-77
2022/11/16 06:54:58;;;;;;;;;;;;;;;6.46;100.00;98857.03;5010801;28;19972;-77
2022/11/16 06:57:23;;;;;;;;;;;;;;;6.46;100.00;98854.28;5013397;28;20291;-78
2022/11/16 06:59:49;;;;;;;;;;;;;;;6.44;100.00;98851.19;5013263;28;19921;-92
2022/11/16 07:02:15;;;;;;;;;;;;;;;6.52;100.00;98841.50;5011451;28;19937;-92
2022/11/16 07:04:40;;;;;;;;;;;;;;;6.56;100.00;98839.41;5008256;28;20434;-92
2022/11/16 07:07:06;;;;;;;;;;;;;;;6.59;100.00;98829.50;5015291;28;19921;-92
2022/11/16 07:09:33;;;;;;;;;;;;;;;6.64;100.00;98833.69;5016812;28;20398;-91
2022/11/16 07:11:58;;;;;;;;;;;;;;;6.68;100.00;98826.09;5038454;28;19921;-92
2022/11/16 07:14:26;;;;;;;;;;;;;;;6.57;100.00;98831.94;5036632;28;20015;-92
2022/11/16 07:16:52;;;;;;;;;;;;;;;6.63;100.00;98829.41;5058111;28;19983;-77
2022/11/16 07:19:18;;;;;;;;;;;;;;;6.67;100.00;98816.28;5052380;28;19974;-77
2022/11/16 07:21:44;;;;;;;;;;;;;;;6.69;100.00;98822.13;5052690;28;19917;-78
2022/11/16 07:24:14;;;;;;;;;;;;;;;6.69;100.00;98816.63;5034232;28;19952;-78
2022/11/16 07:26:40;;;;;;;;;;;;;;;6.71;100.00;98808.69;5034551;28;19921;-78
2022/11/16 07:29:11;;;;;;;;;;;;;;;6.74;100.00;98818.81;5032644;28;19917;-77
2022/11/16 07:31:41;;;;;;;;;;;;;;;6.75;100.00;98809.34;5030930;28;20391;-77
2022/11/16 07:34:42;;;;;;;;;;;;;;;6.77;100.00;98809.66;4952273;29;19931;-92
2022/11/16 07:37:12;;;;;;;;;;;;;;;6.80;100.00;98795.00;5003683;28;20008;-78
2022/11/16 07:39:38;;;;;;;;;;;;;;;6.81;100.00;98802.06;5031102;28;19929;-78
2022/11/16 07:42:10;;;;;;;;;;;;;;;6.84;100.00;98806.69;5027855;28;19925;-78
2022/11/16 07:44:54;;;;;;;;;;;;;;;6.84;100.00;98806.69;5032427;28;19976;-78
2022/11/16 07:47:20;;;;;;;;;;;;;;;6.92;100.00;98800.50;5032095;28;19925;-78
2022/11/16 07:49:47;;;;;;;;;;;;;;;6.98;100.00;98800.75;5030753;28;20283;-78
2022/11/16 07:52:16;;;;;;;;;;;;;;;7.03;100.00;98798.22;5014269;28;19921;-78
2022/11/16 07:55:02;;;;;;;;;;;;;;;7.06;100.00;98782.75;5024641;28;19964;-93
2022/11/16 07:57:28;;;;;;;;;;;;;;;7.14;100.00;98792.34;5024629;28;19927;-91
2022/11/16 07:59:57;;;;;;;;;;;;;;;7.24;100.00;98796.72;5034429;28;19920;-92
2022/11/16 08:02:23;;;;;;;;;;;;;;;7.23;100.00;98795.19;5033920;28;19924;-91
2022/11/16 08:04:49;;;;;;;;;;;;;;;7.20;100.00;98787.03;5033766;28;19928;-90
2022/11/16 08:07:18;;;;;;;;;;;;;;;7.19;100.00;98789.03;5034032;28;19921;-91
2022/11/16 08:09:50;;;;;;;;;;;;;;;7.21;100.00;98786.59;5031479;28;19921;-91
2022/11/16 08:12:16;;;;;;;;;;;;;;;7.29;100.00;98787.13;5013390;28;20082;-90
2022/11/16 08:14:42;;;;;;;;;;;;;;;7.29;100.00;98785.13;5030393;28;19925;-77
2022/11/16 08:17:07;;;;;;;;;;;;;;;7.25;100.00;98781.72;5031463;28;19928;-77
2022/11/16 08:19:35;;;;;;;;;;;;;;;7.28;100.00;98771.81;5030497;28;20294;-77
2022/11/16 08:22:00;;;;;;;;;;;;;;;7.33;100.00;98782.25;5031989;28;19993;-77
2022/11/16 08:24:28;;;;;;;;;;;;;;;7.41;100.00;98776.06;5030233;28;20370;-77
2022/11/16 08:26:56;;;;;;;;;;;;;;;7.48;100.00;98773.03;5029407;28;20016;-77
2022/11/16 08:29:22;;;;;;;;;;;;;;;7.53;100.00;98774.47;5031467;28;19925;-77
2022/11/16 08:31:49;;;;;;;;;;;;;;;7.49;100.00;98776.56;5030673;28;19921;-77
2022/11/16 08:34:18;;;;;;;;;;;;;;;7.57;100.00;98771.56;5029940;28;19928;-90
2022/11/16 08:36:48;;;;;;;;;;;;;;;7.63;100.00;98764.28;5030318;28;19944;-91
2022/11/16 08:39:14;;;;;;;;;;;;;;;7.69;100.00;98766.00;5031413;28;19971;-90
2022/11/16 08:41:43;;;;;;;;;;;;;;;7.69;100.00;98765.25;5029807;28;19925;-90
2022/11/16 08:44:08;;;;;;;;;;;;;;;7.78;100.00;98759.78;5012658;28;19971;-91
2022/11/16 08:46:38;;;;;;;;;;;;;;;7.80;100.00;98760.91;5013882;28;19928;-91
2022/11/16 08:49:16;;;;;;;;;;;;;;;7.81;100.00;98758.88;5030900;28;19925;-90
2022/11/16 08:51:41;;;;;;;;;;;;;;;7.85;100.00;98745.72;5031680;28;19921;-77
2022/11/16 08:54:08;;;;;;;;;;;;;;;7.92;100.00;98762.06;5014872;28;20290;-92
2022/11/16 08:56:35;;;;;;;;;;;;;;;7.97;100.00;98758.69;5015613;28;20323;-92
2022/11/16 08:59:02;;;;;;;;;;;;;;;7.95;100.00;98752.88;5011179;28;19921;-91
2022/11/16 09:01:27;;;;;;;;;;;;;;;7.99;100.00;98753.50;5011075;28;20004;-92
2022/11/16 09:03:53;;;;;;;;;;;;;;;7.96;100.00;98751.66;5011406;28;19929;-92
2022/11/16 09:06:18;;;;;;;;;;;;;;;7.94;100.00;98759.59;5010845;28;20420;-92
2022/11/16 09:08:44;;;;;;;;;;;;;;;7.98;100.00;98760.25;5012264;28;19953;-90
2022/11/16 09:11:11;;;;;;;;;;;;;;;8.01;100.00;98761.34;5026362;28;20341;-92
2022/11/16 09:13:36;;;;;;;;;;;;;;;8.03;100.00;98756.91;5029041;28;19925;-77
2022/11/16 09:16:02;;;;;;;;;;;;;;;8.06;100.00;98739.44;5031283;28;19933;-77
2022/11/16 09:18:27;;;;;;;;;;;;;;;8.11;100.00;98755.44;5030638;28;19967;-77
2022/11/16 09:20:52;;;;;;;;;;;;;;;8.20;100.00;98755.50;5013542;28;19928;-77
2022/11/16 09:23:18;;;;;;;;;;;;;;;8.30;100.00;98753.56;5013161;28;20024;-77
2022/11/16 09:25:47;;;;;;;;;;;;;;;8.32;100.00;98762.94;5031241;28;19960;-77
2022/11/16 09:28:16;;;;;;;;;;;;;;;8.35;100.00;98750.22;5033756;28;19932;-77
2022/11/16 09:30:42;;;;;;;;;;;;;;;8.41;100.00;98754.69;5051380;28;19916;-91
2022/11/16 09:33:08;;;;;;;;;;;;;;;8.45;100.00;98756.56;5054692;28;20016;-91
2022/11/16 09:35:33;;;;;;;;;;;;;;;8.54;100.00;98751.06;5053734;28;19921;-91
2022/11/16 09:37:59;;;;;;;;;;;;;;;8.67;100.00;98737.91;5042468;28;19972;-91
2022/11/16 09:40:29;;;;;;;;;;;;;;;8.68;100.00;98733.94;5056028;28;19921;-92
2022/11/16 09:42:57;;;;;;;;;;;;;;;8.68;100.00;98742.22;5037841;28;19966;-90
2022/11/16 09:45:28;;;;;;;;;;;;;;;8.78;100.00;98749.31;5033234;28;19925;-92
2022/11/16 09:47:58;;;;;;;;;;;;;;;8.77;100.00;98742.25;5033400;28;20390;-90
2022/11/16 09:50:29;;;;;;;;;;;;;;;8.83;100.00;98740.44;5017108;28;19917;-77
2022/11/16 09:52:54;;;;;;;;;;;;;;;8.83;100.00;98729.38;5017088;28;19921;-77
2022/11/16 09:55:40;;;;;;;;;;;;;;;8.88;100.00;98732.31;5016631;28;19964;-77
2022/11/16 09:58:07;;;;;;;;;;;;;;;8.81;100.00;98726.31;5033880;28;19990;-77
2022/11/16 10:00:32;;;;;;;;;;;;;;;8.73;100.00;98725.03;5036392;28;19928;-77
2022/11/16 10:03:02;;;;;;;;;;;;;;;8.77;100.00;98720.91;5036343;28;19924;-77
2022/11/16 10:05:36;;;;;;;;;;;;;;;8.81;100.00;98726.31;5053804;28;19932;-77
2022/11/16 10:08:22;;;;;;;;;;;;;;;8.88;100.00;98726.00;5036785;28;19960;-91
2022/11/16 10:10:56;;;;;;;;;;;;;;;8.78;100.00;98718.91;5032760;28;20012;-77
2022/11/16 10:13:34;;;;;;;;;;;;;;;8.88;100.00;98714.94;5035486;28;20008;-77
2022/11/16 10:16:14;;;;;;;;;;;;;;;8.97;100.00;98711.44;5040878;28;20015;-77
2022/11/16 10:18:42;;;;;;;;;;;;;;;9.00;100.00;98710.50;5053889;28;19968;-77
2022/11/16 10:21:26;;;;;;;;;;;;;;;9.02;100.00;98705.31;5051571;28;19928;-78
2022/11/16 10:23:51;;;;;;;;;;;;;;;9.08;100.00;98701.47;5053654;28;19931;-78
2022/11/16 10:26:20;;;;;;;;;;;;;;;9.08;100.00;98700.69;5051277;28;20445;-78
2022/11/16 10:28:46;;;;;;;;;;;;;;;9.01;100.00;98696.25;5019925;28;20399;-93
2022/11/16 10:31:17;;;;;;;;;;;;;;;9.00;100.00;98686.38;5016805;28;19925;-92
2022/11/16 10:33:43;;;;;;;;;;;;;;;8.90;100.00;98676.53;5035240;28;19931;-92
2022/11/16 10:36:10;;;;;;;;;;;;;;;8.96;100.00;98677.47;5017198;28;20020;-90
2022/11/16 10:38:35;;;;;;;;;;;;;;;8.99;100.00;98676.56;5036844;28;19943;-92
2022/11/16 10:41:21;;;;;;;;;;;;;;;9.07;100.00;98677.78;5018231;28;20367;-91
2022/11/16 10:43:46;;;;;;;;;;;;;;;9.11;100.00;98667.34;5020401;28;19929;-93
2022/11/16 10:46:18;;;;;;;;;;;;;;;9.13;100.00;98664.91;5017161;28;19917;-92
2022/11/16 10:48:52;;;;;;;;;;;;;;;9.21;100.00;98666.13;5033730;28;19921;-78
2022/11/16 10:51:18;;;;;;;;;;;;;;;9.14;100.00;98666.41;5033475;28;20371;-77
2022/11/16 10:53:43;;;;;;;;;;;;;;;9.13;100.00;98659.38;5033395;28;19970;-77
2022/11/16 10:56:36;;;;;;;;;;;;;;;9.14;100.00;98660.88;5033146;28;19935;-78
2022/11/16 10:59:04;;;;;;;;;;;;;;;9.14;100.00;98655.34;5012340;28;19963;-78
2022/11/16 11:01:30;;;;;;;;;;;;;;;9.22;100.00;98655.84;5032848;28;20022;-78
2022/11/16 11:03:55;;;;;;;;;;;;;;;9.24;100.00;98665.22;5032866;28;19971;-78
2022/11/16 11:06:24;;;;;;;;;;;;;;;9.22;100.00;98656.59;5032969;28;20000;-91
2022/11/16 11:08:49;;;;;;;;;;;;;;;9.18;100.00;98652.47;5034461;28;20064;-91
2022/11/16 11:14:03;;;;;;;;;;;;;;;9.27;100.00;98647.66;5039490;28;20390;-92
2022/11/16 11:16:29;;;;;;;;;;;;;;;9.31;100.00;98642.75;5038242;28;19960;-91
2022/11/16 11:18:54;;;;;;;;;;;;;;;9.30;100.00;98643.97;5039332;28;19931;-93
2022/11/16 11:21:19;;;;;;;;;;;;;;;9.30;100.00;98641.22;5056272;28;20399;-92
2022/11/16 11:23:52;;;;;;;;;;;;;;;9.34;100.00;98641.81;5036555;28;19932;-92
2022/11/16 11:26:28;;;;;;;;;;;;;;;9.35;100.00;98637.84;5035590;28;19921;-77
2022/11/16 11:28:54;;;;;;;;;;;;;;;9.40;100.00;98638.44;5031995;28;20341;-78
2022/11/16 11:31:24;;;;;;;;;;;;;;;9.43;100.00;98635.50;5052239;28;19921;-77
2022/11/16 11:33:51;;;;;;;;;;;;;;;9.44;100.00;98628.75;5035440;28;19920;-78
2022/11/16 11:36:20;;;;;;;;;;;;;;;9.45;100.00;98629.53;5052561;28;19923;-78
2022/11/16 11:38:57;;;;;;;;;;;;;;;9.38;100.00;98628.59;5052445;28;19921;-77
2022/11/16 11:41:22;;;;;;;;;;;;;;;9.30;100.00;98629.41;5052280;28;19927;-77
2022/11/16 11:44:02;;;;;;;;;;;;;;;9.26;100.00;98626.75;5043972;28;20019;-78
2022/11/16 11:46:27;;;;;;;;;;;;;;;9.17;100.00;98621.25;5035418;28;19921;-93
2022/11/16 11:48:57;;;;;;;;;;;;;;;9.10;100.00;98621.53;5034716;28;20268;-92
2022/11/16 11:51:32;;;;;;;;;;;;;;;9.05;100.00;98630.47;5015811;28;19964;-91
2022/11/16 11:53:58;;;;;;;;;;;;;;;8.99;100.00;98626.00;5016101;28;19921;-92
2022/11/16 11:56:24;;;;;;;;;;;;;;;9.00;100.00;98628.31;5033311;28;20012;-91
2022/11/16 11:58:50;;;;;;;;;;;;;;;9.02;100.00;98620.31;5014620;28;19992;-91
2022/11/16 12:01:28;;;;;;;;;;;;;;;9.01;100.00;98624.31;5033922;28;19921;-91
2022/11/16 12:04:08;;;;;;;;;;;;;;;8.98;100.00;98618.94;5033670;28;20342;-78
2022/11/16 12:06:34;;;;;;;;;;;;;;;8.99;100.00;98621.25;5031720;28;19948;-78
2022/11/16 12:09:15;;;;;;;;;;;;;;;8.97;100.00;98629.25;5031965;28;20379;-78
2022/11/16 12:12:09;;;;;;;;;;;;;;;8.95;100.00;98633.69;5031714;28;19921;-78
2022/11/16 12:15:01;;;;;;;;;;;;;;;8.92;100.00;98629.06;4959841;28;19941;-78
2022/11/16 12:17:29;;;;;;;;;;;;;;;8.84;100.00;98636.91;5000845;28;19927;-78
2022/11/16 12:20:13;;;;;;;;;;;;;;;8.78;100.00;98636.72;5014110;28;19928;-77
2022/11/16 12:22:41;;;;;;;;;;;;;;;8.76;100.00;98630.13;5032316;28;19921;-91
2022/11/16 12:25:26;;;;;;;;;;;;;;;8.70;100.00;98632.72;5033697;28;19921;-91
2022/11/16 12:27:57;;;;;;;;;;;;;;;8.63;100.00;98637.78;5033746;28;19928;-91
2022/11/16 12:30:23;;;;;;;;;;;;;;;8.56;100.00;98638.84;5042578;28;20459;-92
2022/11/16 12:33:01;;;;;;;;;;;;;;;8.57;100.00;98640.38;5035249;28;19960;-91
2022/11/16 12:35:29;;;;;;;;;;;;;;;8.52;100.00;98631.94;5052339;28;19921;-89
2022/11/16 12:38:12;;;;;;;;;;;;;;;8.46;100.00;98639.25;5053764;28;20375;-90
2022/11/16 12:40:57;;;;;;;;;;;;;;;8.47;100.00;98629.75;5054105;28;20436;-92
2022/11/16 12:43:22;;;;;;;;;;;;;;;8.42;100.00;98634.66;5051488;28;19929;-77
2022/11/16 12:45:53;;;;;;;;;;;;;;;8.39;100.00;98635.56;5049643;28;19921;-78
2022/11/16 12:48:23;;;;;;;;;;;;;;;8.34;100.00;98644.44;5033352;28;19921;-77
2022/11/16 12:51:07;;;;;;;;;;;;;;;8.29;100.00;98642.28;5033563;28;19921;-78
2022/11/16 12:53:52;;;;;;;;;;;;;;;8.23;100.00;98638.56;5051156;28;19971;-76
2022/11/16 12:56:24;;;;;;;;;;;;;;;8.19;100.00;98640.69;5033351;28;19920;-77
2022/11/16 12:59:08;;;;;;;;;;;;;;;8.18;100.00;98633.63;5048858;28;20028;-77
2022/11/16 13:01:39;;;;;;;;;;;;;;;8.14;100.00;98638.50;5052380;28;19921;-91
2022/11/16 13:04:06;;;;;;;;;;;;;;;8.08;100.00;98634.06;5054537;28;20019;-92
2022/11/16 13:06:33;;;;;;;;;;;;;;;8.07;100.00;98641.56;5035621;28;19921;-91
2022/11/16 13:09:04;;;;;;;;;;;;;;;8.08;100.00;98642.34;5035512;28;19920;-90
2022/11/16 13:11:37;;;;;;;;;;;;;;;8.05;100.00;98641.22;5038313;28;19944;-92
2022/11/16 13:14:03;;;;;;;;;;;;;;;8.06;100.00;98639.25;5037201;28;20003;-92
2022/11/16 13:16:28;;;;;;;;;;;;;;;8.04;100.00;98639.72;5038273;28;19925;-90
2022/11/16 13:18:54;;;;;;;;;;;;;;;8.04;100.00;98639.72;5050178;28;19928;-90
2022/11/16 13:21:21;;;;;;;;;;;;;;;8.07;100.00;98646.31;5033532;28;19921;-78
2022/11/16 13:23:53;;;;;;;;;;;;;;;8.03;100.00;98635.41;5000981;28;19937;-79
2022/11/16 13:26:23;;;;;;;;;;;;;;;8.04;100.00;98642.47;5034815;28;19921;-78
2022/11/16 13:28:48;;;;;;;;;;;;;;;8.08;100.00;98637.59;5016958;28;19968;-78
2022/11/16 13:31:34;;;;;;;;;;;;;;;8.10;100.00;98639.88;5034801;28;19921;-77
2022/11/16 13:34:06;;;;;;;;;;;;;;;8.09;100.00;98639.09;5033140;28;19975;-77
2022/11/16 13:36:35;;;;;;;;;;;;;;;8.10;100.00;98637.88;5034622;28;19933;-78
2022/11/16 13:39:01;;;;;;;;;;;;;;;8.12;100.00;98637.44;5035279;28;19960;-93
2022/11/16 13:41:32;;;;;;;;;;;;;;;8.13;100.00;98639.00;5020066;28;19917;-90
2022/11/16 13:43:58;;;;;;;;;;;;;;;8.10;100.00;98618.56;5035411;28;19925;-92